Terminal Aerodrome Forecast
Issued by NWS

Home | Current Version | Previous Version | Text Only | Print | Product List | Glossary On
Versions: 1 2 3 4 5 6 7 8 9 10 11 12 13 14 15
000
FTAK31 PAJN 231720
TAFAJN
TAF
PAJN 231720Z 2318/2418 11020G30KT 6SM -RA BKN025 OVC040
      WS020/15040KT
      TEMPO 2318/2320 11025G35KT 5SM -RA BR FEW015 BKN020 OVC030
     FM232200 12017G26KT 5SM -RA BR BKN025 OVC035 WS020/14030KT
     FM240500 12011KT P6SM -RA BKN025 OVC035=

USA.gov is the U.S. government's official web portal to all federal, state and local government web resources and services.